createdAt,value
2018-12-15T00:00:12.973Z,19.63
2018-12-15T00:02:40.625Z,19.97
2018-12-15T00:05:08.209Z,21.50
2018-12-15T00:07:35.802Z,19.90
2018-12-15T00:10:03.881Z,22.97
2018-12-15T00:12:31.465Z,20.27
2018-12-15T00:14:59.056Z,20.10
2018-12-15T00:17:26.602Z,20.80
2018-12-15T00:19:54.162Z,21.63
2018-12-15T00:22:21.807Z,23.07
2018-12-15T00:24:49.567Z,21.07
2018-12-15T00:27:17.179Z,22.73
2018-12-15T00:29:44.793Z,22.60
2018-12-15T00:32:12.363Z,21.87
2018-12-15T00:34:39.999Z,22.03
2018-12-15T00:37:07.590Z,21.70
2018-12-15T00:39:35.249Z,23.63
2018-12-15T00:42:02.844Z,22.43
2018-12-15T00:44:30.474Z,23.43
2018-12-15T00:46:58.149Z,21.93
2018-12-15T00:49:25.750Z,22.93
2018-12-15T00:51:53.323Z,23.53
2018-12-15T00:54:20.884Z,25.43
2018-12-15T00:56:48.473Z,24.37
2018-12-15T00:59:16.083Z,26.30
2018-12-15T01:01:43.750Z,27.53
2018-12-15T01:04:11.362Z,23.77
2018-12-15T01:06:38.966Z,22.97
2018-12-15T01:09:06.557Z,25.63
2018-12-15T01:11:34.115Z,27.57
2018-12-15T01:14:01.676Z,23.23
2018-12-15T01:16:29.950Z,21.97
2018-12-15T01:18:57.547Z,25.17
2018-12-15T01:21:25.108Z,26.07
2018-12-15T01:23:52.754Z,25.93
2018-12-15T01:26:20.296Z,24.37
2018-12-15T01:28:47.882Z,24.17
2018-12-15T01:31:15.446Z,21.80
2018-12-15T01:33:43.046Z,25.17
2018-12-15T01:36:10.621Z,23.47
2018-12-15T01:38:38.188Z,23.37
2018-12-15T01:41:05.774Z,24.10
2018-12-15T01:43:33.371Z,22.67
2018-12-15T01:46:00.931Z,24.60
2018-12-15T01:48:28.543Z,23.60
2018-12-15T01:50:57.856Z,24.30
2018-12-15T01:53:25.439Z,23.33
2018-12-15T01:55:52.985Z,28.53
2018-12-15T01:58:20.543Z,26.83
2018-12-15T02:00:48.171Z,26.30
2018-12-15T02:03:15.831Z,26.70
2018-12-15T02:05:43.405Z,26.07
2018-12-15T02:08:10.964Z,28.60
2018-12-15T02:10:38.549Z,24.43
2018-12-15T02:13:06.107Z,25.90
2018-12-15T02:15:33.694Z,26.97
2018-12-15T02:18:01.250Z,28.67
2018-12-15T02:20:28.828Z,26.50
2018-12-15T02:22:56.392Z,25.63
2018-12-15T02:25:24.029Z,26.07
2018-12-15T02:27:51.596Z,25.77
2018-12-15T02:30:19.153Z,26.87
2018-12-15T02:32:46.716Z,27.30
2018-12-15T02:35:14.381Z,26.47
2018-12-15T02:37:41.937Z,24.00
2018-12-15T02:40:09.522Z,25.70
2018-12-15T02:42:37.121Z,24.03
2018-12-15T02:45:04.716Z,27.13
2018-12-15T02:47:32.319Z,28.67
2018-12-15T02:49:59.905Z,28.93
2018-12-15T02:52:27.488Z,26.17
2018-12-15T02:54:55.104Z,29.37
2018-12-15T02:57:22.719Z,26.07
2018-12-15T02:59:50.290Z,28.60
2018-12-15T03:02:17.850Z,29.30
2018-12-15T03:04:45.523Z,27.73
2018-12-15T03:07:13.134Z,26.00
2018-12-15T03:09:40.730Z,28.47
2018-12-15T03:12:08.289Z,25.13
2018-12-15T03:14:35.882Z,29.10
2018-12-15T03:17:04.787Z,25.13
2018-12-15T03:19:32.422Z,26.63
2018-12-15T03:22:00.002Z,27.33
2018-12-15T03:24:27.642Z,25.73
2018-12-15T03:26:55.201Z,26.33
2018-12-15T03:29:22.767Z,25.53
2018-12-15T03:31:50.360Z,26.77
2018-12-15T03:34:17.958Z,27.17
2018-12-15T03:36:45.539Z,26.97
2018-12-15T03:39:13.121Z,26.03
2018-12-15T03:41:40.735Z,27.90
2018-12-15T03:44:08.290Z,27.87
2018-12-15T03:46:35.877Z,29.27
2018-12-15T03:49:03.444Z,25.63
2018-12-15T03:51:31.035Z,26.00
2018-12-15T03:53:58.682Z,26.40
2018-12-15T03:56:26.249Z,28.77
2018-12-15T03:58:53.838Z,27.40
2018-12-15T04:01:21.472Z,27.37
2018-12-15T04:03:49.029Z,27.60
2018-12-15T04:06:16.622Z,26.53
2018-12-15T04:08:44.201Z,28.43
2018-12-15T04:11:11.759Z,27.77
2018-12-15T04:13:39.367Z,27.00
2018-12-15T04:16:06.926Z,26.93
2018-12-15T04:18:34.744Z,26.80
2018-12-15T04:21:02.358Z,25.43
2018-12-15T04:23:29.912Z,28.40
2018-12-15T04:25:57.475Z,28.47
2018-12-15T04:28:25.080Z,27.27
2018-12-15T04:30:52.666Z,31.10
2018-12-15T04:33:20.224Z,29.37
2018-12-15T04:35:47.811Z,26.03
2018-12-15T04:38:15.420Z,26.70
2018-12-15T04:40:43.172Z,28.93
2018-12-15T04:43:10.742Z,31.77
2018-12-15T04:45:38.328Z,28.77
2018-12-15T04:48:11.032Z,30.70
2018-12-15T04:50:35.557Z,28.93
2018-12-15T04:53:03.132Z,28.07
2018-12-15T04:55:30.722Z,31.57
2018-12-15T04:57:58.328Z,30.43
2018-12-15T05:00:25.917Z,27.80
2018-12-15T05:02:53.451Z,28.80
2018-12-15T05:05:21.029Z,29.30
2018-12-15T05:07:48.600Z,26.87
2018-12-15T05:10:16.196Z,26.43
2018-12-15T05:12:43.749Z,30.33
2018-12-15T05:15:11.403Z,28.60
2018-12-15T05:17:38.971Z,28.03
2018-12-15T05:20:07.433Z,28.47
2018-12-15T05:22:35.146Z,32.13
2018-12-15T05:25:02.839Z,26.20
2018-12-15T05:27:30.489Z,30.70
2018-12-15T05:29:58.079Z,27.33
2018-12-15T05:32:25.705Z,29.83
2018-12-15T05:34:53.286Z,27.30
2018-12-15T05:37:20.896Z,29.10
2018-12-15T05:39:48.521Z,28.80
2018-12-15T05:42:16.059Z,29.50
2018-12-15T05:44:43.702Z,28.40
2018-12-15T05:47:11.287Z,30.73
2018-12-15T05:49:38.862Z,29.33
2018-12-15T05:52:06.443Z,26.07
2018-12-15T05:54:34.035Z,28.67
2018-12-15T05:57:01.594Z,30.83
2018-12-15T05:59:29.177Z,27.30
2018-12-15T06:01:56.977Z,28.80
2018-12-15T06:04:24.558Z,28.40
2018-12-15T06:06:52.133Z,26.10
2018-12-15T06:09:19.723Z,25.83
2018-12-15T06:11:47.292Z,28.17
2018-12-15T06:14:14.837Z,25.70
2018-12-15T06:16:42.443Z,26.43
2018-12-15T06:19:10.038Z,24.37
2018-12-15T06:21:37.607Z,26.30
2018-12-15T06:24:05.176Z,27.13
2018-12-15T06:26:32.737Z,29.23
2018-12-15T06:29:00.302Z,27.70
2018-12-15T06:31:27.882Z,25.90
2018-12-15T06:33:55.446Z,24.93
2018-12-15T06:36:23.022Z,26.33
2018-12-15T06:38:50.631Z,25.03
2018-12-15T06:41:18.273Z,23.63
2018-12-15T06:43:46.006Z,23.07
2018-12-15T06:46:13.605Z,26.07
2018-12-15T06:48:41.222Z,24.33
2018-12-15T06:51:08.871Z,25.83
2018-12-15T06:53:36.502Z,23.97
2018-12-15T06:56:04.079Z,24.50
2018-12-15T06:58:31.634Z,26.13
2018-12-15T07:00:59.247Z,23.07
2018-12-15T07:03:26.804Z,26.17
2018-12-15T07:05:54.422Z,24.57
2018-12-15T07:08:22.095Z,25.20
2018-12-15T07:10:49.685Z,24.13
2018-12-15T07:13:17.230Z,22.60
2018-12-15T07:15:44.831Z,25.10
2018-12-15T07:18:12.423Z,21.97
2018-12-15T07:20:40.054Z,24.33
2018-12-15T07:23:07.658Z,26.60
2018-12-15T07:25:35.510Z,24.30
2018-12-15T07:28:03.101Z,21.87
2018-12-15T07:30:30.837Z,24.20
2018-12-15T07:32:58.415Z,23.97
2018-12-15T07:35:26.004Z,22.83
2018-12-15T07:37:53.603Z,22.67
2018-12-15T07:40:21.217Z,22.23
2018-12-15T07:42:48.789Z,18.40
2018-12-15T07:45:16.366Z,19.60
2018-12-15T07:47:43.911Z,19.23
2018-12-15T07:50:11.532Z,19.27
2018-12-15T07:52:39.153Z,21.07
2018-12-15T07:55:06.705Z,19.03
2018-12-15T07:57:34.250Z,16.50
2018-12-15T08:00:01.837Z,19.43
2018-12-15T08:02:29.569Z,16.10
2018-12-15T08:04:57.157Z,18.07
2018-12-15T08:07:24.811Z,24.13
2018-12-15T08:09:52.382Z,21.33
2018-12-15T08:12:25.669Z,19.97
2018-12-15T08:14:53.403Z,20.07
2018-12-15T08:17:20.989Z,19.53
2018-12-15T08:19:48.562Z,18.67
2018-12-15T08:22:16.219Z,22.33
2018-12-15T08:24:44.203Z,21.17
2018-12-15T08:27:11.934Z,19.63
2018-12-15T08:29:39.512Z,24.13
2018-12-15T08:32:07.130Z,22.53
2018-12-15T08:34:34.731Z,20.10
2018-12-15T08:37:02.301Z,19.97
2018-12-15T08:39:29.875Z,21.93
2018-12-15T08:41:57.461Z,21.87
2018-12-15T08:44:25.029Z,20.03
2018-12-15T08:46:52.627Z,20.03
2018-12-15T08:49:20.242Z,20.20
2018-12-15T08:51:47.820Z,18.53
2018-12-15T08:54:15.418Z,21.47
2018-12-15T08:56:43.024Z,20.70
2018-12-15T08:59:10.685Z,22.07
2018-12-15T09:01:38.249Z,17.87
2018-12-15T09:04:05.834Z,18.27
2018-12-15T09:06:33.444Z,19.20
2018-12-15T09:09:01.060Z,21.13
2018-12-15T09:11:28.663Z,18.80
2018-12-15T09:13:56.254Z,18.40
2018-12-15T09:16:26.682Z,17.77
2018-12-15T09:18:54.147Z,19.77
2018-12-15T09:21:21.713Z,22.27
2018-12-15T09:23:49.247Z,20.77
2018-12-15T09:26:16.834Z,19.30
2018-12-15T09:28:44.387Z,20.57
2018-12-15T09:31:12.021Z,17.83
2018-12-15T09:33:39.579Z,18.50
2018-12-15T09:36:07.186Z,18.00
2018-12-15T09:38:34.759Z,19.73
2018-12-15T09:41:02.517Z,18.67
2018-12-15T09:43:30.121Z,18.43
2018-12-15T09:45:57.675Z,21.57
2018-12-15T09:48:25.262Z,19.43
2018-12-15T09:50:52.862Z,20.10
2018-12-15T09:53:20.419Z,21.10
2018-12-15T09:55:48.014Z,23.93
2018-12-15T09:58:15.648Z,22.17
2018-12-15T10:00:43.238Z,20.63
2018-12-15T10:03:10.796Z,22.60
2018-12-15T10:05:38.379Z,20.30
2018-12-15T10:08:06.043Z,20.73
2018-12-15T10:10:33.627Z,22.60
2018-12-15T10:13:01.226Z,21.20
2018-12-15T10:15:28.823Z,18.40
2018-12-15T10:17:57.375Z,19.57
2018-12-15T10:20:24.933Z,18.47
2018-12-15T10:22:52.485Z,20.90
2018-12-15T10:25:20.055Z,16.57
2018-12-15T10:27:47.625Z,18.87
2018-12-15T10:30:20.861Z,16.93
2018-12-15T10:32:51.914Z,23.17
2018-12-15T10:35:20.156Z,19.00
2018-12-15T10:37:48.205Z,17.30
2018-12-15T10:40:15.795Z,20.53
2018-12-15T10:42:44.426Z,16.07
2018-12-15T10:45:12.011Z,20.90
2018-12-15T10:47:39.689Z,23.80
2018-12-15T10:50:08.858Z,21.50
2018-12-15T10:52:36.507Z,17.97
2018-12-15T10:55:05.209Z,19.03
2018-12-15T10:57:32.789Z,21.13
2018-12-15T11:00:00.455Z,20.20
2018-12-15T11:02:28.992Z,18.77
2018-12-15T11:04:56.553Z,18.33
2018-12-15T11:07:24.117Z,21.67
2018-12-15T11:09:51.712Z,17.13
2018-12-15T11:12:19.320Z,18.47
2018-12-15T11:14:46.904Z,16.50
2018-12-15T11:17:15.568Z,20.20
2018-12-15T11:19:43.501Z,19.37
2018-12-15T11:22:12.604Z,18.90
2018-12-15T11:24:40.189Z,20.03
2018-12-15T11:27:10.556Z,22.17
2018-12-15T11:29:40.220Z,19.80
2018-12-15T11:32:07.887Z,20.13
2018-12-15T11:34:35.765Z,17.37
2018-12-15T11:37:03.960Z,17.90
2018-12-15T11:39:31.582Z,17.67
2018-12-15T11:41:59.152Z,17.40
2018-12-15T11:44:26.764Z,24.70
2018-12-15T11:46:54.398Z,20.40
2018-12-15T11:49:22.670Z,18.27
2018-12-15T11:51:50.257Z,18.27
2018-12-15T11:54:17.869Z,19.43
2018-12-15T11:56:45.509Z,17.50
2018-12-15T11:59:16.716Z,17.70
2018-12-15T12:01:44.392Z,16.80
2018-12-15T12:04:12.030Z,16.97
2018-12-15T12:06:39.703Z,17.90
2018-12-15T12:09:07.266Z,20.67
2018-12-15T12:11:34.864Z,16.73
2018-12-15T12:14:02.439Z,15.30
2018-12-15T12:16:34.786Z,16.13
2018-12-15T12:19:02.774Z,18.67
2018-12-15T12:21:30.893Z,18.07
2018-12-15T12:23:58.512Z,17.77
2018-12-15T12:26:27.034Z,19.77
2018-12-15T12:28:54.673Z,18.87
2018-12-15T12:31:24.031Z,17.57
2018-12-15T12:33:51.630Z,18.57
2018-12-15T12:36:20.484Z,19.47
2018-12-15T12:38:48.652Z,21.60
2018-12-15T12:41:16.231Z,19.43
2018-12-15T12:43:44.656Z,18.40
2018-12-15T12:46:13.732Z,18.53
2018-12-15T12:48:44.255Z,21.20
2018-12-15T12:51:11.910Z,17.50
2018-12-15T12:53:41.025Z,19.07
2018-12-15T12:56:09.641Z,21.27
2018-12-15T12:58:37.510Z,22.67
2018-12-15T13:01:05.087Z,20.37
2018-12-15T13:03:35.171Z,21.13
2018-12-15T13:06:02.803Z,20.10
2018-12-15T13:08:30.390Z,17.30
2018-12-15T13:10:57.993Z,20.63
2018-12-15T13:13:25.592Z,20.00
2018-12-15T13:15:53.174Z,19.30
2018-12-15T13:18:22.302Z,21.97
2018-12-15T13:20:49.913Z,20.83
2018-12-15T13:23:17.474Z,19.50
2018-12-15T13:25:45.054Z,17.80
2018-12-15T13:28:12.650Z,19.93
2018-12-15T13:30:40.237Z,18.27
2018-12-15T13:33:34.282Z,19.70
2018-12-15T13:36:01.890Z,18.73
2018-12-15T13:38:29.475Z,22.50
2018-12-15T13:40:57.177Z,19.67
2018-12-15T13:43:25.673Z,19.10
2018-12-15T13:45:53.282Z,20.47
2018-12-15T13:48:21.269Z,20.13
2018-12-15T13:50:49.052Z,18.57
2018-12-15T13:53:16.647Z,20.57
2018-12-15T13:55:44.270Z,20.40
2018-12-15T13:58:11.931Z,21.97
2018-12-15T14:00:39.921Z,15.93
2018-12-15T14:03:07.703Z,19.93
2018-12-15T14:05:35.286Z,18.50
2018-12-15T14:08:02.867Z,21.33
2018-12-15T14:10:30.472Z,19.37
2018-12-15T14:12:58.990Z,18.77
2018-12-15T14:15:26.577Z,21.17
2018-12-15T14:17:54.170Z,22.20
2018-12-15T14:20:21.754Z,19.60
2018-12-15T14:22:49.349Z,22.30
2018-12-15T14:25:16.958Z,20.03
2018-12-15T14:27:44.536Z,20.97
2018-12-15T14:30:12.105Z,22.47
2018-12-15T14:32:39.816Z,23.07
2018-12-15T14:35:07.491Z,20.80
2018-12-15T14:37:35.127Z,22.57
2018-12-15T14:40:02.842Z,19.60
2018-12-15T14:42:30.448Z,21.40
2018-12-15T14:44:58.049Z,21.40
2018-12-15T14:47:25.646Z,22.10
2018-12-15T14:49:53.276Z,24.23
2018-12-15T14:52:20.849Z,23.17
2018-12-15T14:54:48.881Z,18.13
2018-12-15T14:57:18.499Z,20.67
2018-12-15T14:59:46.539Z,23.57
2018-12-15T15:02:14.246Z,23.77
2018-12-15T15:04:41.913Z,20.73
2018-12-15T15:07:09.578Z,22.00
2018-12-15T15:09:37.152Z,23.67
2018-12-15T15:12:04.717Z,24.20
2018-12-15T15:14:32.352Z,21.17
2018-12-15T15:16:59.945Z,25.37
2018-12-15T15:19:28.824Z,20.63
2018-12-15T15:21:56.452Z,22.97
2018-12-15T15:24:24.058Z,21.17
2018-12-15T15:26:51.694Z,27.23
2018-12-15T15:29:19.292Z,26.47
2018-12-15T15:31:46.941Z,25.40
2018-12-15T15:34:14.567Z,24.27
2018-12-15T15:36:42.421Z,24.53
2018-12-15T15:39:10.062Z,24.07
2018-12-15T15:41:37.624Z,23.30
2018-12-15T15:44:05.213Z,24.60
2018-12-15T15:46:32.810Z,24.17
2018-12-15T15:49:00.402Z,24.97
2018-12-15T15:51:28.073Z,26.43
2018-12-15T15:53:55.659Z,27.60
2018-12-15T15:56:24.337Z,26.17
2018-12-15T15:58:51.892Z,28.13
2018-12-15T16:01:19.555Z,27.33
2018-12-15T16:03:47.198Z,25.00
2018-12-15T16:06:14.778Z,27.80
2018-12-15T16:08:42.468Z,28.77
2018-12-15T16:11:10.092Z,25.90
2018-12-15T16:13:37.741Z,29.13
2018-12-15T16:19:03.093Z,28.47
2018-12-15T16:21:30.759Z,26.80
2018-12-15T16:23:58.424Z,25.57
2018-12-15T16:26:26.024Z,26.93
2018-12-15T16:28:53.648Z,24.03
2018-12-15T16:31:21.229Z,27.63
2018-12-15T16:33:48.867Z,24.53
2018-12-15T16:36:16.572Z,28.00
2018-12-15T16:38:44.330Z,28.90
2018-12-15T16:41:11.881Z,23.57
2018-12-15T16:43:39.484Z,24.00
2018-12-15T16:46:07.108Z,26.27
2018-12-15T16:48:34.719Z,27.60
2018-12-15T16:51:02.360Z,27.27
2018-12-15T16:53:29.919Z,25.43
2018-12-15T16:55:57.496Z,29.50
2018-12-15T16:58:25.070Z,28.43
2018-12-15T17:00:52.703Z,26.33
2018-12-15T17:03:20.352Z,24.43
2018-12-15T17:05:47.929Z,26.20
2018-12-15T17:08:15.472Z,23.00
2018-12-15T17:10:43.053Z,22.97
2018-12-15T17:13:10.613Z,29.97
2018-12-15T17:15:38.275Z,22.80
2018-12-15T17:18:05.949Z,27.97
2018-12-15T17:20:34.081Z,26.17
2018-12-15T17:23:01.636Z,24.60
2018-12-15T17:25:29.982Z,24.77
2018-12-15T17:27:57.544Z,24.40
2018-12-15T17:30:25.197Z,25.10
2018-12-15T17:32:52.972Z,26.17
2018-12-15T17:35:20.566Z,24.73
2018-12-15T17:37:48.195Z,26.03
2018-12-15T17:40:15.824Z,25.03
2018-12-15T17:42:44.436Z,24.63
2018-12-15T17:45:12.155Z,25.10
2018-12-15T17:47:39.760Z,21.00
2018-12-15T17:50:08.075Z,23.03
2018-12-15T17:52:35.644Z,25.07
2018-12-15T17:55:04.536Z,25.40
2018-12-15T17:57:32.171Z,23.83
2018-12-15T17:59:59.828Z,23.90
2018-12-15T18:02:27.409Z,23.53
2018-12-15T18:04:55.051Z,22.67
2018-12-15T18:07:22.832Z,20.90
2018-12-15T18:09:50.609Z,22.40
2018-12-15T18:12:18.243Z,32.47
2018-12-15T18:14:45.808Z,20.97
2018-12-15T18:17:13.386Z,24.67
2018-12-15T18:19:41.207Z,22.50
2018-12-15T18:22:08.862Z,23.33
2018-12-15T18:24:36.531Z,22.90
2018-12-15T18:27:04.647Z,22.90
2018-12-15T18:29:32.288Z,20.77
2018-12-15T18:31:59.925Z,21.50
2018-12-15T18:34:27.529Z,20.77
2018-12-15T18:36:55.167Z,22.60
2018-12-15T18:39:22.755Z,21.20
2018-12-15T18:41:50.344Z,18.40
2018-12-15T18:44:17.955Z,20.70
2018-12-15T18:46:45.534Z,20.43
2018-12-15T18:49:13.277Z,23.03
2018-12-15T18:51:40.853Z,24.37
2018-12-15T18:54:08.507Z,21.97
2018-12-15T18:56:36.301Z,21.13
2018-12-15T18:59:04.018Z,22.37
2018-12-15T19:01:31.630Z,21.30
2018-12-15T19:03:59.248Z,20.67
2018-12-15T19:06:26.904Z,21.33
2018-12-15T19:08:54.456Z,22.67
2018-12-15T19:11:22.047Z,22.70
2018-12-15T19:13:49.653Z,22.87
2018-12-15T19:16:17.244Z,21.80
2018-12-15T19:18:44.818Z,22.33
2018-12-15T19:21:12.438Z,22.87
2018-12-15T19:23:40.098Z,19.87
2018-12-15T19:26:07.685Z,22.20
2018-12-15T19:28:35.239Z,20.47
2018-12-15T19:31:02.833Z,21.23
2018-12-15T19:33:30.602Z,15.40
2018-12-15T19:35:58.191Z,21.13
2018-12-15T19:38:25.788Z,23.30
2018-12-15T19:40:53.423Z,19.20
2018-12-15T19:43:21.078Z,21.83
2018-12-15T19:45:48.802Z,20.70
2018-12-15T19:48:16.500Z,23.70
2018-12-15T19:50:44.114Z,22.20
2018-12-15T19:53:11.685Z,22.93
2018-12-15T19:55:39.245Z,24.43
2018-12-15T19:58:06.809Z,20.30
2018-12-15T20:00:34.399Z,21.80
2018-12-15T20:03:02.161Z,23.23
2018-12-15T20:05:29.823Z,23.67
2018-12-15T20:07:57.406Z,22.67
2018-12-15T20:10:25.014Z,20.53
2018-12-15T20:12:52.597Z,22.90
2018-12-15T20:15:20.156Z,23.63
2018-12-15T20:17:47.738Z,22.20
2018-12-15T20:20:15.293Z,20.90
2018-12-15T20:22:42.857Z,22.00
2018-12-15T20:25:10.462Z,25.63
2018-12-15T20:27:38.981Z,23.10
2018-12-15T20:30:06.695Z,22.10
2018-12-15T20:32:34.325Z,27.17
2018-12-15T20:35:01.937Z,26.47
2018-12-15T20:37:41.604Z,22.03
2018-12-15T20:40:10.290Z,21.37
2018-12-15T20:42:37.846Z,20.60
2018-12-15T20:45:05.984Z,20.37
2018-12-15T20:47:33.560Z,26.93
2018-12-15T20:50:01.148Z,22.27
2018-12-15T20:52:28.808Z,20.23
2018-12-15T20:54:56.393Z,22.27
2018-12-15T20:57:24.005Z,21.90
2018-12-15T20:59:51.592Z,22.40
2018-12-15T21:02:19.170Z,21.87
2018-12-15T21:04:46.752Z,17.63
2018-12-15T21:07:14.315Z,22.03
2018-12-15T21:09:41.967Z,24.47
2018-12-15T21:12:09.537Z,25.57
2018-12-15T21:14:37.115Z,20.07
2018-12-15T21:17:05.119Z,23.13
2018-12-15T21:19:32.683Z,23.50
2018-12-15T21:22:00.264Z,23.63
2018-12-15T21:24:27.841Z,26.00
2018-12-15T21:26:55.422Z,24.03
2018-12-15T21:29:23.101Z,27.20
2018-12-15T21:31:56.459Z,21.37
2018-12-15T21:34:20.313Z,28.60
2018-12-15T21:36:47.870Z,23.30
2018-12-15T21:39:15.433Z,26.57
2018-12-15T21:41:43.028Z,26.20
2018-12-15T21:44:10.609Z,23.90
2018-12-15T21:46:38.172Z,28.97
2018-12-15T21:49:05.739Z,26.93
2018-12-15T21:51:33.312Z,26.70
2018-12-15T21:54:00.943Z,27.60
2018-12-15T21:56:28.580Z,24.50
2018-12-15T21:58:56.178Z,28.67
2018-12-15T22:01:23.787Z,26.47
2018-12-15T22:03:51.362Z,24.87
2018-12-15T22:06:18.940Z,27.20
2018-12-15T22:08:46.506Z,26.67
2018-12-15T22:11:14.062Z,27.50
2018-12-15T22:13:41.605Z,29.20
2018-12-15T22:16:09.179Z,24.77
2018-12-15T22:18:36.763Z,28.10
2018-12-15T22:21:04.824Z,30.10
2018-12-15T22:23:32.426Z,29.23
2018-12-15T22:26:00.108Z,29.57
2018-12-15T22:28:27.690Z,29.03
2018-12-15T22:30:55.254Z,28.73
2018-12-15T22:33:22.908Z,31.30
2018-12-15T22:35:50.499Z,35.50
2018-12-15T22:38:18.099Z,32.07
2018-12-15T22:40:45.688Z,34.83
2018-12-15T22:43:13.290Z,31.63
2018-12-15T22:45:40.852Z,29.17
2018-12-15T22:48:08.414Z,34.60
2018-12-15T22:50:35.973Z,35.03
2018-12-15T22:53:03.578Z,33.00
2018-12-15T22:55:31.132Z,35.23
2018-12-15T22:57:58.759Z,36.47
2018-12-15T23:00:26.335Z,35.20
2018-12-15T23:02:53.920Z,32.33
2018-12-15T23:05:21.510Z,35.47
2018-12-15T23:07:49.121Z,34.20
2018-12-15T23:10:16.707Z,38.20
2018-12-15T23:12:44.294Z,35.70
2018-12-15T23:15:11.919Z,36.50
2018-12-15T23:17:39.534Z,34.37
2018-12-15T23:20:07.295Z,36.47
2018-12-15T23:22:34.982Z,36.13
2018-12-15T23:25:03.425Z,37.37
2018-12-15T23:27:31.057Z,40.17
2018-12-15T23:29:58.681Z,37.90
2018-12-15T23:32:26.268Z,39.73
2018-12-15T23:34:53.867Z,39.87
2018-12-15T23:37:21.526Z,44.67
2018-12-15T23:39:49.808Z,42.80
2018-12-15T23:42:17.490Z,45.03
2018-12-15T23:44:45.046Z,37.77
2018-12-15T23:47:12.678Z,38.10
2018-12-15T23:49:40.239Z,42.00
2018-12-15T23:52:07.955Z,42.63
2018-12-15T23:54:35.626Z,45.23
2018-12-15T23:57:03.197Z,38.47
2018-12-15T23:59:30.783Z,43.87
